createdAt,value
2019-03-24T00:01:12.280Z,29.27
2019-03-24T00:03:39.789Z,31.67
2019-03-24T00:06:07.368Z,28.87
2019-03-24T00:08:34.536Z,27.70
2019-03-24T00:11:02.517Z,28.53
2019-03-24T00:13:29.670Z,28.40
2019-03-24T00:15:57.548Z,30.00
2019-03-24T00:18:25.338Z,26.17
2019-03-24T00:20:52.617Z,27.73
2019-03-24T00:23:20.768Z,25.67
2019-03-24T00:25:48.545Z,23.10
2019-03-24T00:28:17.257Z,20.27
2019-03-24T00:30:44.605Z,19.90
2019-03-24T00:33:12.785Z,19.90
2019-03-24T00:35:39.957Z,17.93
2019-03-24T00:38:07.651Z,17.10
2019-03-24T00:40:35.098Z,15.90
2019-03-24T00:43:02.353Z,18.33
2019-03-24T00:45:36.892Z,12.90
2019-03-24T00:47:59.081Z,12.50
2019-03-24T00:50:26.302Z,12.40
2019-03-24T00:52:53.800Z,11.27
2019-03-24T00:55:21.005Z,11.83
2019-03-24T00:57:48.352Z,11.50
2019-03-24T01:00:17.913Z,12.30
2019-03-24T01:02:45.068Z,12.10
2019-03-24T01:05:12.507Z,10.87
2019-03-24T01:07:39.990Z,9.80
2019-03-24T01:10:08.892Z,9.50
2019-03-24T01:12:36.002Z,9.73
2019-03-24T01:15:05.301Z,7.90
2019-03-24T01:17:32.758Z,6.60
2019-03-24T01:19:59.999Z,8.50
2019-03-24T01:22:27.152Z,7.53
2019-03-24T01:24:54.271Z,6.67
2019-03-24T01:27:21.420Z,6.60
2019-03-24T01:29:48.632Z,6.83
2019-03-24T01:32:15.761Z,6.10
2019-03-24T01:34:42.972Z,6.10
2019-03-24T01:37:10.120Z,6.43
2019-03-24T01:39:37.277Z,6.53
2019-03-24T01:42:04.519Z,7.30
2019-03-24T01:44:31.692Z,7.10
2019-03-24T01:46:58.915Z,7.80
2019-03-24T01:49:26.185Z,8.67
2019-03-24T01:51:53.322Z,8.67
2019-03-24T01:54:20.480Z,8.57
2019-03-24T01:56:47.632Z,11.27
2019-03-24T01:59:14.906Z,11.80
2019-03-24T02:01:42.061Z,15.50
2019-03-24T02:04:09.512Z,14.50
2019-03-24T02:06:38.593Z,18.73
2019-03-24T02:09:07.935Z,14.90
2019-03-24T02:11:35.080Z,14.47
2019-03-24T02:14:02.254Z,12.53
2019-03-24T02:16:29.388Z,12.10
2019-03-24T02:18:56.551Z,11.50
2019-03-24T02:21:23.864Z,10.23
2019-03-24T02:23:51.042Z,10.50
2019-03-24T02:26:19.234Z,9.30
2019-03-24T02:28:46.375Z,9.40
2019-03-24T02:31:13.542Z,9.77
2019-03-24T02:33:40.668Z,9.20
2019-03-24T02:36:07.831Z,10.70
2019-03-24T02:38:34.998Z,9.97
2019-03-24T02:41:02.184Z,9.90
2019-03-24T02:43:29.460Z,9.90
2019-03-24T02:45:56.641Z,10.13
2019-03-24T02:48:23.792Z,9.33
2019-03-24T02:50:51.126Z,8.43
2019-03-24T02:53:18.616Z,7.10
2019-03-24T02:55:45.850Z,7.23
2019-03-24T02:58:13.072Z,7.80
2019-03-24T03:00:40.268Z,7.13
2019-03-24T03:03:07.750Z,8.33
2019-03-24T03:05:35.271Z,8.00
2019-03-24T03:08:03.030Z,7.37
2019-03-24T03:10:30.342Z,7.60
2019-03-24T03:12:57.664Z,7.10
2019-03-24T03:15:24.936Z,6.77
2019-03-24T03:17:52.192Z,7.30
2019-03-24T03:20:19.618Z,8.10
2019-03-24T03:22:47.079Z,6.80
2019-03-24T03:25:14.856Z,6.90
2019-03-24T03:27:42.126Z,7.73
2019-03-24T03:30:09.834Z,7.13
2019-03-24T03:32:37.685Z,7.40
2019-03-24T03:35:06.951Z,7.03
2019-03-24T03:37:34.441Z,7.60
2019-03-24T03:40:01.897Z,6.83
2019-03-24T03:42:30.000Z,6.50
2019-03-24T03:44:57.496Z,6.23
2019-03-24T03:47:24.754Z,6.80
2019-03-24T03:49:52.630Z,7.33
2019-03-24T03:52:20.077Z,8.03
2019-03-24T03:54:47.387Z,7.73
2019-03-24T03:57:14.793Z,6.83
2019-03-24T03:59:42.299Z,6.70
2019-03-24T04:02:09.621Z,5.97
2019-03-24T04:04:36.764Z,6.40
2019-03-24T04:07:04.059Z,7.27
2019-03-24T04:09:31.423Z,6.23
2019-03-24T04:11:58.646Z,6.70
2019-03-24T04:14:25.864Z,6.33
2019-03-24T04:17:06.048Z,6.20
2019-03-24T04:19:22.199Z,5.57
2019-03-24T04:21:49.388Z,5.10
2019-03-24T04:24:16.546Z,5.93
2019-03-24T04:26:43.758Z,5.23
2019-03-24T04:29:10.941Z,4.97
2019-03-24T04:31:38.142Z,5.33
2019-03-24T04:34:05.407Z,4.90
2019-03-24T04:36:32.850Z,5.07
2019-03-24T04:39:00.081Z,5.43
2019-03-24T04:41:27.364Z,4.93
2019-03-24T04:43:54.557Z,5.37
2019-03-24T04:46:22.029Z,4.80
2019-03-24T04:48:49.282Z,6.40
2019-03-24T04:51:16.495Z,4.47
2019-03-24T04:53:43.717Z,5.10
2019-03-24T04:56:10.881Z,4.70
2019-03-24T04:58:38.047Z,5.67
2019-03-24T05:01:05.216Z,5.50
2019-03-24T05:03:32.446Z,4.70
2019-03-24T05:05:59.676Z,5.47
2019-03-24T05:08:27.805Z,4.57
2019-03-24T05:10:54.920Z,6.00
2019-03-24T05:13:22.327Z,4.77
2019-03-24T05:15:49.529Z,4.30
2019-03-24T05:18:16.669Z,4.70
2019-03-24T05:20:43.973Z,4.53
2019-03-24T05:23:11.126Z,4.60
2019-03-24T05:25:38.246Z,4.57
2019-03-24T05:28:05.663Z,4.47
2019-03-24T05:30:32.789Z,4.50
2019-03-24T05:32:59.920Z,3.87
2019-03-24T05:35:27.062Z,4.37
2019-03-24T05:37:54.179Z,4.80
2019-03-24T05:40:21.349Z,4.50
2019-03-24T05:42:48.579Z,4.30
2019-03-24T05:45:15.703Z,4.30
2019-03-24T05:47:42.872Z,4.97
2019-03-24T05:50:10.371Z,5.07
2019-03-24T05:52:37.492Z,3.90
2019-03-24T05:55:04.965Z,4.80
2019-03-24T05:57:32.211Z,5.07
2019-03-24T05:59:59.600Z,4.27
2019-03-24T06:02:26.784Z,3.80
2019-03-24T06:04:53.957Z,4.60
2019-03-24T06:07:21.226Z,3.90
2019-03-24T06:09:48.380Z,4.13
2019-03-24T06:12:15.516Z,3.83
2019-03-24T06:14:43.200Z,4.70
2019-03-24T06:17:10.327Z,4.60
2019-03-24T06:19:37.473Z,4.97
2019-03-24T06:22:04.652Z,4.60
2019-03-24T06:24:32.031Z,4.40
2019-03-24T06:26:59.171Z,3.90
2019-03-24T06:29:26.316Z,4.60
2019-03-24T06:31:53.472Z,7.53
2019-03-24T06:34:20.656Z,3.80
2019-03-24T06:36:47.825Z,4.30
2019-03-24T06:39:14.971Z,4.13
2019-03-24T06:41:42.514Z,4.03
2019-03-24T06:44:09.644Z,5.07
2019-03-24T06:46:36.825Z,4.43
2019-03-24T06:49:04.259Z,5.67
2019-03-24T06:51:31.386Z,4.70
2019-03-24T06:53:58.584Z,4.27
2019-03-24T06:56:25.731Z,4.27
2019-03-24T06:58:52.856Z,4.73
2019-03-24T07:01:20.028Z,7.97
2019-03-24T07:03:48.733Z,7.80
2019-03-24T07:06:15.864Z,4.53
2019-03-24T07:08:42.996Z,6.50
2019-03-24T07:11:13.726Z,4.53
2019-03-24T07:13:39.763Z,5.13
2019-03-24T07:16:06.971Z,9.23
2019-03-24T07:18:34.162Z,7.30
2019-03-24T07:21:01.374Z,6.47
2019-03-24T07:23:28.529Z,5.53
2019-03-24T07:25:55.709Z,5.97
2019-03-24T07:28:24.863Z,6.33
2019-03-24T07:30:51.931Z,4.90
2019-03-24T07:33:19.159Z,5.00
2019-03-24T07:35:46.329Z,5.27
2019-03-24T07:38:13.487Z,5.20
2019-03-24T07:40:40.745Z,4.30
2019-03-24T07:43:08.192Z,4.80
2019-03-24T07:45:35.347Z,5.20
2019-03-24T07:48:02.552Z,5.80
2019-03-24T07:50:29.744Z,5.00
2019-03-24T07:52:56.908Z,4.97
2019-03-24T07:55:24.047Z,5.10
2019-03-24T07:57:51.289Z,5.00
2019-03-24T08:00:31.893Z,4.87
2019-03-24T08:02:59.026Z,5.17
2019-03-24T08:05:26.180Z,5.00
2019-03-24T08:07:53.605Z,6.40
2019-03-24T08:10:20.769Z,5.20
2019-03-24T08:12:48.220Z,5.20
2019-03-24T08:15:15.633Z,5.30
2019-03-24T08:17:42.852Z,6.00
2019-03-24T08:20:12.211Z,5.10
2019-03-24T08:22:39.203Z,6.60
2019-03-24T08:25:06.596Z,6.87
2019-03-24T08:27:33.760Z,7.37
2019-03-24T08:30:01.130Z,6.20
2019-03-24T08:32:28.389Z,8.57
2019-03-24T08:34:55.550Z,7.83
2019-03-24T08:37:22.806Z,6.90
2019-03-24T08:39:50.049Z,6.50
2019-03-24T08:42:17.210Z,15.30
2019-03-24T08:44:44.464Z,5.03
2019-03-24T08:47:11.627Z,4.90
2019-03-24T08:49:38.769Z,5.77
2019-03-24T08:52:05.944Z,5.63
2019-03-24T08:54:33.108Z,6.90
2019-03-24T08:57:00.235Z,15.60
2019-03-24T08:59:27.380Z,5.73
2019-03-24T09:01:54.545Z,4.80
2019-03-24T09:04:21.868Z,5.40
2019-03-24T09:06:49.191Z,6.87
2019-03-24T09:09:16.393Z,4.37
2019-03-24T09:11:43.613Z,4.90
2019-03-24T09:14:11.165Z,6.10
2019-03-24T09:16:38.329Z,4.87
2019-03-24T09:19:05.723Z,5.10
2019-03-24T09:21:33.137Z,5.10
2019-03-24T09:24:00.669Z,5.43
2019-03-24T09:26:27.824Z,4.00
2019-03-24T09:28:54.974Z,6.37
2019-03-24T09:31:22.136Z,5.13
2019-03-24T09:33:49.292Z,4.67
2019-03-24T09:36:20.569Z,4.63
2019-03-24T09:38:47.750Z,4.63
2019-03-24T09:41:14.885Z,4.57
2019-03-24T09:43:42.121Z,3.47
2019-03-24T09:46:09.379Z,8.53
2019-03-24T09:48:36.868Z,6.27
2019-03-24T09:51:04.623Z,7.20
2019-03-24T09:53:31.891Z,5.30
2019-03-24T09:55:59.049Z,4.10
2019-03-24T09:58:26.317Z,3.97
2019-03-24T10:00:53.581Z,5.50
2019-03-24T10:03:20.779Z,4.80
2019-03-24T10:05:47.991Z,4.20
2019-03-24T10:08:15.294Z,4.73
2019-03-24T10:10:42.454Z,4.80
2019-03-24T10:13:09.665Z,3.83
2019-03-24T10:15:36.879Z,4.33
2019-03-24T10:18:04.052Z,4.97
2019-03-24T10:20:31.360Z,4.90
2019-03-24T10:22:58.525Z,3.97
2019-03-24T10:25:25.695Z,5.23
2019-03-24T10:27:52.842Z,5.37
2019-03-24T10:30:20.060Z,4.10
2019-03-24T10:32:47.501Z,4.63
2019-03-24T10:35:14.656Z,4.70
2019-03-24T10:37:42.282Z,4.60
2019-03-24T10:40:10.102Z,4.30
2019-03-24T10:42:37.448Z,4.63
2019-03-24T10:45:05.520Z,3.80
2019-03-24T10:47:32.679Z,4.40
2019-03-24T10:49:59.915Z,3.60
2019-03-24T10:52:27.383Z,4.10
2019-03-24T10:54:54.577Z,3.67
2019-03-24T10:57:21.725Z,3.80
2019-03-24T10:59:48.944Z,5.23
2019-03-24T11:02:16.118Z,4.50
2019-03-24T11:04:43.320Z,5.07
2019-03-24T11:07:10.525Z,5.40
2019-03-24T11:09:37.734Z,3.90
2019-03-24T11:12:04.995Z,3.70
2019-03-24T11:14:32.438Z,3.90
2019-03-24T11:16:59.631Z,3.30
2019-03-24T11:19:35.234Z,3.40
2019-03-24T11:21:55.929Z,3.77
2019-03-24T11:24:23.130Z,4.57
2019-03-24T11:26:50.332Z,4.50
2019-03-24T11:29:17.589Z,4.60
2019-03-24T11:31:44.860Z,3.80
2019-03-24T11:34:12.006Z,4.40
2019-03-24T11:36:39.476Z,4.80
2019-03-24T11:39:07.250Z,3.80
2019-03-24T11:41:34.445Z,3.50
2019-03-24T11:44:01.673Z,3.30
2019-03-24T11:46:28.950Z,2.97
2019-03-24T11:48:56.229Z,3.80
2019-03-24T11:51:23.659Z,4.17
2019-03-24T11:53:50.800Z,3.73
2019-03-24T11:56:17.984Z,3.20
2019-03-24T11:58:45.198Z,4.63
2019-03-24T12:01:12.493Z,3.20
2019-03-24T12:03:39.640Z,4.13
2019-03-24T12:06:14.575Z,3.60
2019-03-24T12:08:36.177Z,3.43
2019-03-24T12:11:04.188Z,3.30
2019-03-24T12:13:31.682Z,8.17
2019-03-24T12:15:58.848Z,4.60
2019-03-24T12:18:26.387Z,4.70
2019-03-24T12:20:54.025Z,4.20
2019-03-24T12:23:21.147Z,3.50
2019-03-24T12:25:48.388Z,15.70
2019-03-24T12:28:15.981Z,4.47
2019-03-24T12:30:43.178Z,5.40
2019-03-24T12:33:10.349Z,5.20
2019-03-24T12:35:37.526Z,4.30
2019-03-24T12:38:04.759Z,7.20
2019-03-24T12:40:32.116Z,13.87
2019-03-24T12:42:59.351Z,19.07
2019-03-24T12:45:26.840Z,6.30
2019-03-24T12:47:53.983Z,6.23
2019-03-24T12:50:30.891Z,3.17
2019-03-24T12:52:50.217Z,3.17
2019-03-24T12:55:17.457Z,8.47
2019-03-24T12:57:44.680Z,18.20
2019-03-24T13:00:12.303Z,3.77
2019-03-24T13:02:39.495Z,5.37
2019-03-24T13:05:07.563Z,3.13
2019-03-24T13:07:34.832Z,3.20
2019-03-24T13:10:02.129Z,2.20
2019-03-24T13:12:31.002Z,2.90
2019-03-24T13:14:58.131Z,3.93
2019-03-24T13:17:25.284Z,2.80
2019-03-24T13:19:52.455Z,3.50
2019-03-24T13:22:19.664Z,6.00
2019-03-24T13:24:47.129Z,3.53
2019-03-24T13:27:14.290Z,4.10
2019-03-24T13:29:41.608Z,3.23
2019-03-24T13:32:08.856Z,4.20
2019-03-24T13:34:36.036Z,4.30
2019-03-24T13:37:04.339Z,2.60
2019-03-24T13:39:31.677Z,5.10
2019-03-24T13:41:58.956Z,6.97
2019-03-24T13:44:26.163Z,4.83
2019-03-24T13:46:53.608Z,3.63
2019-03-24T13:49:20.743Z,3.70
2019-03-24T13:51:47.981Z,2.83
2019-03-24T13:54:15.123Z,4.27
2019-03-24T13:56:42.388Z,3.47
2019-03-24T13:59:09.553Z,8.90
2019-03-24T14:01:36.904Z,4.10
2019-03-24T14:04:04.457Z,7.73
2019-03-24T14:06:32.232Z,4.07
2019-03-24T14:08:59.419Z,3.43
2019-03-24T14:11:26.814Z,4.70
2019-03-24T14:13:54.225Z,4.70
2019-03-24T14:16:21.602Z,4.43
2019-03-24T14:18:48.836Z,4.63
2019-03-24T14:21:15.967Z,3.77
2019-03-24T14:23:43.115Z,10.17
2019-03-24T14:26:10.643Z,3.30
2019-03-24T14:28:38.412Z,3.57
2019-03-24T14:31:05.673Z,9.77
2019-03-24T14:33:32.848Z,4.80
2019-03-24T14:36:00.094Z,6.37
2019-03-24T14:38:27.292Z,5.83
2019-03-24T14:40:54.519Z,3.77
2019-03-24T14:43:22.021Z,3.27
2019-03-24T14:45:49.312Z,3.20
2019-03-24T14:48:16.450Z,5.10
2019-03-24T14:50:53.831Z,2.27
2019-03-24T14:53:13.149Z,5.10
2019-03-24T14:55:40.407Z,7.20
2019-03-24T14:58:08.227Z,3.40
2019-03-24T15:00:40.752Z,4.10
2019-03-24T15:06:49.199Z,3.60
2019-03-24T15:09:16.351Z,2.80
2019-03-24T15:11:43.788Z,3.00
2019-03-24T15:14:11.045Z,2.47
2019-03-24T15:16:38.269Z,4.57
2019-03-24T15:19:05.632Z,3.47
2019-03-24T15:21:33.067Z,3.00
2019-03-24T15:24:00.258Z,4.50
2019-03-24T15:26:27.416Z,3.50
2019-03-24T15:28:54.713Z,3.37
2019-03-24T15:31:21.845Z,2.97
2019-03-24T15:33:49.227Z,2.80
2019-03-24T15:36:16.379Z,3.73
2019-03-24T15:38:44.641Z,4.40
2019-03-24T15:41:12.173Z,3.70
2019-03-24T15:43:41.167Z,3.47
2019-03-24T15:46:08.507Z,3.70
2019-03-24T15:48:35.697Z,4.23
2019-03-24T15:51:03.024Z,3.03
2019-03-24T15:53:30.198Z,4.27
2019-03-24T15:55:57.455Z,3.57
2019-03-24T15:58:24.804Z,5.67
2019-03-24T16:00:52.033Z,3.10
2019-03-24T16:03:19.464Z,3.67
2019-03-24T16:06:06.115Z,3.37
2019-03-24T16:08:33.404Z,2.87
2019-03-24T16:11:00.870Z,3.07
2019-03-24T16:13:28.189Z,3.13
2019-03-24T16:15:55.432Z,4.13
2019-03-24T16:18:22.710Z,7.63
2019-03-24T16:20:49.959Z,6.50
2019-03-24T16:23:17.152Z,5.20
2019-03-24T16:25:44.400Z,3.63
2019-03-24T16:28:11.883Z,3.70
2019-03-24T16:30:41.432Z,5.80
2019-03-24T16:33:09.206Z,3.00
2019-03-24T16:35:36.728Z,3.50
2019-03-24T16:38:04.381Z,3.27
2019-03-24T16:40:31.741Z,3.77
2019-03-24T16:42:59.388Z,3.97
2019-03-24T16:45:27.480Z,4.03
2019-03-24T16:47:54.755Z,3.87
2019-03-24T16:50:22.248Z,3.40
2019-03-24T16:52:49.525Z,3.30
2019-03-24T16:55:16.699Z,3.03
2019-03-24T16:57:43.867Z,6.77
2019-03-24T17:00:11.932Z,7.70
2019-03-24T17:02:39.223Z,5.03
2019-03-24T17:05:07.504Z,3.50
2019-03-24T17:07:34.763Z,4.93
2019-03-24T17:10:01.961Z,4.70
2019-03-24T17:12:29.196Z,3.97
2019-03-24T17:14:56.796Z,3.53
2019-03-24T17:17:24.102Z,3.63
2019-03-24T17:19:52.077Z,3.20
2019-03-24T17:22:19.759Z,3.57
2019-03-24T17:24:46.985Z,3.23
2019-03-24T17:27:14.225Z,3.10
2019-03-24T17:29:41.405Z,4.00
2019-03-24T17:32:09.354Z,3.13
2019-03-24T17:34:36.729Z,3.60
2019-03-24T17:37:04.013Z,3.60
2019-03-24T17:39:31.219Z,3.70
2019-03-24T17:41:58.587Z,3.23
2019-03-24T17:44:26.242Z,4.67
2019-03-24T17:46:53.571Z,3.80
2019-03-24T17:49:21.154Z,3.00
2019-03-24T17:51:48.372Z,4.30
2019-03-24T17:54:15.541Z,3.30
2019-03-24T17:56:42.679Z,4.30
2019-03-24T17:59:09.903Z,3.80
2019-03-24T18:01:37.104Z,4.00
2019-03-24T18:04:04.430Z,3.07
2019-03-24T18:06:31.609Z,4.10
2019-03-24T18:08:58.788Z,4.03
2019-03-24T18:11:26.560Z,3.90
2019-03-24T18:13:53.880Z,4.93
2019-03-24T18:16:21.082Z,3.43
2019-03-24T18:18:48.897Z,3.23
2019-03-24T18:21:16.690Z,3.90
2019-03-24T18:23:44.149Z,3.20
2019-03-24T18:26:11.462Z,3.70
2019-03-24T18:28:38.707Z,3.93
2019-03-24T18:31:06.557Z,3.90
2019-03-24T18:33:33.997Z,5.37
2019-03-24T18:36:01.673Z,4.57
2019-03-24T18:38:28.940Z,5.93
2019-03-24T18:40:56.146Z,6.10
2019-03-24T18:43:23.637Z,6.63
2019-03-24T18:45:50.898Z,6.47
2019-03-24T18:48:18.333Z,6.67
2019-03-24T18:50:45.585Z,4.73
2019-03-24T18:53:12.849Z,4.80
2019-03-24T18:55:40.059Z,5.60
2019-03-24T18:58:07.333Z,6.70
2019-03-24T19:00:35.204Z,7.60
2019-03-24T19:03:02.356Z,7.03
2019-03-24T19:05:29.552Z,7.50
2019-03-24T19:07:57.622Z,4.10
2019-03-24T19:10:25.078Z,6.50
2019-03-24T19:12:52.301Z,5.10
2019-03-24T19:15:20.361Z,5.90
2019-03-24T19:17:48.649Z,5.27
2019-03-24T19:20:16.421Z,5.73
2019-03-24T19:22:43.738Z,6.33
2019-03-24T19:25:11.455Z,7.37
2019-03-24T19:27:38.682Z,7.50
2019-03-24T19:30:07.469Z,9.73
2019-03-24T19:32:35.939Z,7.50
2019-03-24T19:35:04.393Z,9.03
2019-03-24T19:37:33.347Z,9.03
2019-03-24T19:40:00.972Z,9.77
2019-03-24T19:42:28.472Z,12.40
2019-03-24T19:44:56.351Z,14.60
2019-03-24T19:47:24.076Z,18.50
2019-03-24T19:49:51.374Z,29.73
2019-03-24T19:52:19.019Z,50.03
2019-03-24T19:54:46.372Z,10.63
2019-03-24T19:57:16.769Z,8.30
2019-03-24T19:59:44.475Z,8.60
2019-03-24T20:02:12.464Z,6.63
2019-03-24T20:04:39.812Z,10.23
2019-03-24T20:07:12.084Z,10.93
2019-03-24T20:09:39.517Z,7.50
2019-03-24T20:12:07.395Z,10.00
2019-03-24T20:14:35.070Z,9.20
2019-03-24T20:17:02.815Z,7.40
2019-03-24T20:19:30.776Z,6.73
2019-03-24T20:21:58.521Z,5.70
2019-03-24T20:24:25.855Z,8.50
2019-03-24T20:26:53.447Z,5.80
2019-03-24T20:29:20.741Z,6.50
2019-03-24T20:31:48.059Z,8.17
2019-03-24T20:34:15.784Z,7.07
2019-03-24T20:36:43.535Z,6.57
2019-03-24T20:39:10.850Z,7.10
2019-03-24T20:41:38.233Z,6.40
2019-03-24T20:44:05.561Z,7.67
2019-03-24T20:46:33.063Z,8.50
2019-03-24T20:49:00.525Z,9.70
2019-03-24T20:51:28.078Z,5.93
2019-03-24T20:53:55.433Z,11.63
2019-03-24T20:56:23.007Z,7.90
2019-03-24T20:58:51.069Z,10.77
2019-03-24T21:01:18.858Z,6.43
2019-03-24T21:03:46.254Z,6.40
2019-03-24T21:06:13.508Z,7.30
2019-03-24T21:08:40.729Z,8.13
2019-03-24T21:11:08.084Z,9.73
2019-03-24T21:13:35.263Z,8.30
2019-03-24T21:16:02.920Z,8.90
2019-03-24T21:18:31.156Z,6.80
2019-03-24T21:20:58.669Z,5.27
2019-03-24T21:23:29.896Z,8.93
2019-03-24T21:25:56.867Z,6.83
2019-03-24T21:28:24.538Z,6.30
2019-03-24T21:30:52.977Z,8.10
2019-03-24T21:33:21.784Z,5.67
2019-03-24T21:35:49.625Z,15.30
2019-03-24T21:38:18.130Z,7.00
2019-03-24T21:40:46.191Z,7.00
2019-03-24T21:43:14.693Z,8.50
2019-03-24T21:45:45.531Z,6.67
2019-03-24T21:48:13.280Z,6.80
2019-03-24T21:50:41.157Z,7.87
2019-03-24T21:53:09.228Z,8.67
2019-03-24T21:55:37.726Z,7.27
2019-03-24T21:58:05.621Z,7.20
2019-03-24T22:00:37.515Z,7.33
2019-03-24T22:03:05.823Z,6.67
2019-03-24T22:05:33.982Z,8.70
2019-03-24T22:08:02.036Z,9.00
2019-03-24T22:10:31.457Z,7.90
2019-03-24T22:12:59.117Z,10.23
2019-03-24T22:15:27.145Z,5.53
2019-03-24T22:17:54.536Z,8.50
2019-03-24T22:20:22.203Z,5.53
2019-03-24T22:22:49.908Z,3.90
2019-03-24T22:25:17.434Z,8.30
2019-03-24T22:27:45.190Z,6.00
2019-03-24T22:30:13.333Z,7.70
2019-03-24T22:32:40.966Z,5.50
2019-03-24T22:35:08.501Z,6.20
2019-03-24T22:37:36.147Z,6.50
2019-03-24T22:40:05.033Z,7.47
2019-03-24T22:42:32.771Z,6.00
2019-03-24T22:45:00.641Z,5.40
2019-03-24T22:47:28.028Z,6.10
2019-03-24T22:49:55.353Z,4.70
2019-03-24T22:52:23.160Z,5.90
2019-03-24T22:54:50.432Z,6.30
2019-03-24T22:57:17.984Z,5.97
2019-03-24T22:59:45.687Z,5.77
2019-03-24T23:02:13.429Z,4.20
2019-03-24T23:04:41.416Z,6.00
2019-03-24T23:07:09.426Z,6.80
2019-03-24T23:09:37.329Z,5.27
2019-03-24T23:12:05.348Z,6.70
2019-03-24T23:14:33.132Z,5.57
2019-03-24T23:17:04.047Z,5.67
2019-03-24T23:19:33.497Z,6.67
2019-03-24T23:22:02.157Z,4.70
2019-03-24T23:24:33.507Z,6.80
2019-03-24T23:27:03.544Z,5.17
2019-03-24T23:29:32.250Z,7.40
2019-03-24T23:32:02.006Z,8.53
2019-03-24T23:34:29.990Z,6.60
2019-03-24T23:36:57.856Z,8.23
2019-03-24T23:39:25.282Z,5.50
2019-03-24T23:41:54.324Z,7.47
2019-03-24T23:44:25.223Z,5.87
2019-03-24T23:46:52.897Z,7.40
2019-03-24T23:49:23.455Z,6.90
2019-03-24T23:55:21.525Z,8.53
2019-03-24T23:57:49.263Z,7.60
